sensor_id;sensor_type;location;lat;lon;timestamp;pressure;altitude;pressure_sealevel;temperature;humidity
60019;BME280;45870;42.528;26.740;2023-04-07T00:00:42;99448.69;;;14.22;34.98
60019;BME280;45870;42.528;26.740;2023-04-07T00:03:08;99446.72;;;12.80;37.40
60019;BME280;45870;42.528;26.740;2023-04-07T00:05:33;99450.59;;;12.68;37.41
60019;BME280;45870;42.528;26.740;2023-04-07T00:07:59;99451.50;;;13.22;37.04
60019;BME280;45870;42.528;26.740;2023-04-07T00:10:25;99458.75;;;13.48;37.48
60019;BME280;45870;42.528;26.740;2023-04-07T00:12:51;99456.63;;;12.96;38.74
60019;BME280;45870;42.528;26.740;2023-04-07T00:15:17;99454.72;;;12.48;38.92
60019;BME280;45870;42.528;26.740;2023-04-07T00:17:43;99447.59;;;12.21;39.08
60019;BME280;45870;42.528;26.740;2023-04-07T00:20:08;99455.78;;;12.47;38.73
60019;BME280;45870;42.528;26.740;2023-04-07T00:22:34;99452.78;;;12.92;37.64
60019;BME280;45870;42.528;26.740;2023-04-07T00:25:00;99454.53;;;13.03;37.71
60019;BME280;45870;42.528;26.740;2023-04-07T00:27:25;99455.66;;;13.34;37.35
60019;BME280;45870;42.528;26.740;2023-04-07T00:29:51;99457.78;;;12.57;39.13
60019;BME280;45870;42.528;26.740;2023-04-07T00:32:20;99409.78;;;13.23;37.74
60019;BME280;45870;42.528;26.740;2023-04-07T00:34:46;99458.28;;;12.76;39.00
60019;BME280;45870;42.528;26.740;2023-04-07T00:37:11;99455.03;;;12.52;39.96
60019;BME280;45870;42.528;26.740;2023-04-07T00:39:37;99457.31;;;12.38;38.89
60019;BME280;45870;42.528;26.740;2023-04-07T00:42:04;99455.31;;;12.77;39.00
60019;BME280;45870;42.528;26.740;2023-04-07T00:44:32;99409.91;;;12.36;38.81
60019;BME280;45870;42.528;26.740;2023-04-07T00:46:58;99462.66;;;12.55;39.47
60019;BME280;45870;42.528;26.740;2023-04-07T00:49:24;99466.59;;;12.26;40.19
60019;BME280;45870;42.528;26.740;2023-04-07T00:51:50;99462.97;;;11.98;41.56
60019;BME280;45870;42.528;26.740;2023-04-07T00:54:17;99411.38;;;11.17;41.67
60019;BME280;45870;42.528;26.740;2023-04-07T00:56:43;99464.56;;;11.78;41.32
60019;BME280;45870;42.528;26.740;2023-04-07T00:59:08;99465.88;;;11.92;41.68
60019;BME280;45870;42.528;26.740;2023-04-07T01:01:54;99462.59;;;11.57;42.31
60019;BME280;45870;42.528;26.740;2023-04-07T01:04:32;99465.69;;;11.32;43.15
60019;BME280;45870;42.528;26.740;2023-04-07T01:07:12;99466.69;;;12.14;41.64
60019;BME280;45870;42.528;26.740;2023-04-07T01:09:50;99442.03;;;11.89;41.53
60019;BME280;45870;42.528;26.740;2023-04-07T01:12:55;99457.63;;;12.20;39.02
60019;BME280;45870;42.528;26.740;2023-04-07T01:15:23;99462.03;;;12.96;37.47
60019;BME280;45870;42.528;26.740;2023-04-07T01:17:58;99462.97;;;13.07;37.40
60019;BME280;45870;42.528;26.740;2023-04-07T01:20:26;99457.31;;;13.09;37.92
60019;BME280;45870;42.528;26.740;2023-04-07T01:22:57;99465.22;;;14.16;35.52
60019;BME280;45870;42.528;26.740;2023-04-07T01:28:40;99463.16;;;13.91;34.79
60019;BME280;45870;42.528;26.740;2023-04-07T01:31:11;99460.78;;;14.05;34.00
60019;BME280;45870;42.528;26.740;2023-04-07T01:33:38;99465.00;;;14.79;33.29
60019;BME280;45870;42.528;26.740;2023-04-07T01:36:08;99434.91;;;15.11;32.63
60019;BME280;45870;42.528;26.740;2023-04-07T01:38:34;99461.13;;;14.65;33.47
60019;BME280;45870;42.528;26.740;2023-04-07T01:41:01;99446.56;;;13.87;34.75
60019;BME280;45870;42.528;26.740;2023-04-07T01:43:28;99471.22;;;13.81;35.00
60019;BME280;45870;42.528;26.740;2023-04-07T01:45:55;99468.91;;;14.41;33.87
60019;BME280;45870;42.528;26.740;2023-04-07T01:48:22;99464.59;;;15.48;31.78
60019;BME280;45870;42.528;26.740;2023-04-07T01:50:48;99462.22;;;14.64;33.14
60019;BME280;45870;42.528;26.740;2023-04-07T01:53:15;99462.41;;;14.00;34.71
60019;BME280;45870;42.528;26.740;2023-04-07T01:55:42;99457.31;;;14.56;33.67
60019;BME280;45870;42.528;26.740;2023-04-07T01:58:09;99463.06;;;14.70;32.95
60019;BME280;45870;42.528;26.740;2023-04-07T02:00:34;99457.22;;;15.33;32.85
60019;BME280;45870;42.528;26.740;2023-04-07T02:03:17;99453.84;;;14.76;33.26
60019;BME280;45870;42.528;26.740;2023-04-07T02:05:54;99469.44;;;16.12;30.89
60019;BME280;45870;42.528;26.740;2023-04-07T02:08:22;99442.22;;;16.02;31.31
60019;BME280;45870;42.528;26.740;2023-04-07T02:10:49;99473.47;;;16.29;31.99
60019;BME280;45870;42.528;26.740;2023-04-07T02:13:18;99479.81;;;15.44;34.08
60019;BME280;45870;42.528;26.740;2023-04-07T02:15:45;99467.88;;;15.50;33.98
60019;BME280;45870;42.528;26.740;2023-04-07T02:18:14;99473.31;;;15.70;34.23
60019;BME280;45870;42.528;26.740;2023-04-07T02:20:41;99479.50;;;16.16;33.21
60019;BME280;45870;42.528;26.740;2023-04-07T02:23:08;99477.13;;;15.74;34.80
60019;BME280;45870;42.528;26.740;2023-04-07T02:25:34;99483.38;;;15.85;34.46
60019;BME280;45870;42.528;26.740;2023-04-07T02:28:03;99478.97;;;15.38;35.42
60019;BME280;45870;42.528;26.740;2023-04-07T02:30:30;99482.41;;;14.31;36.89
60019;BME280;45870;42.528;26.740;2023-04-07T02:32:56;99483.34;;;15.39;35.24
60019;BME280;45870;42.528;26.740;2023-04-07T02:35:22;99480.31;;;15.16;35.32
60019;BME280;45870;42.528;26.740;2023-04-07T02:37:48;99303.41;;;13.99;35.44
60019;BME280;45870;42.528;26.740;2023-04-07T02:40:14;99430.00;;;15.13;34.65
60019;BME280;45870;42.528;26.740;2023-04-07T02:42:40;99432.22;;;15.57;34.07
60019;BME280;45870;42.528;26.740;2023-04-07T02:45:07;99496.91;;;15.34;35.92
60019;BME280;45870;42.528;26.740;2023-04-07T02:47:34;99490.44;;;15.71;35.38
60019;BME280;45870;42.528;26.740;2023-04-07T02:50:01;99501.59;;;15.89;34.53
60019;BME280;45870;42.528;26.740;2023-04-07T02:52:26;99499.69;;;15.80;34.96
60019;BME280;45870;42.528;26.740;2023-04-07T02:54:52;99476.31;;;15.69;35.96
60019;BME280;45870;42.528;26.740;2023-04-07T02:57:18;99502.69;;;15.68;36.12
60019;BME280;45870;42.528;26.740;2023-04-07T02:59:44;99503.25;;;15.65;35.88
60019;BME280;45870;42.528;26.740;2023-04-07T03:02:09;99504.06;;;15.86;35.43
60019;BME280;45870;42.528;26.740;2023-04-07T03:04:35;99512.22;;;15.81;35.49
60019;BME280;45870;42.528;26.740;2023-04-07T03:07:01;99509.94;;;15.27;36.60
60019;BME280;45870;42.528;26.740;2023-04-07T03:09:26;99502.66;;;15.48;35.79
60019;BME280;45870;42.528;26.740;2023-04-07T03:11:52;99497.53;;;15.82;35.05
60019;BME280;45870;42.528;26.740;2023-04-07T03:14:18;99499.41;;;16.07;34.22
60019;BME280;45870;42.528;26.740;2023-04-07T03:16:44;99499.41;;;16.02;33.78
60019;BME280;45870;42.528;26.740;2023-04-07T03:19:10;99506.19;;;16.19;33.53
60019;BME280;45870;42.528;26.740;2023-04-07T03:21:37;99510.00;;;16.23;33.16
60019;BME280;45870;42.528;26.740;2023-04-07T03:24:04;99483.94;;;15.62;33.36
60019;BME280;45870;42.528;26.740;2023-04-07T03:26:30;99515.16;;;15.34;35.33
60019;BME280;45870;42.528;26.740;2023-04-07T03:28:56;99489.34;;;15.92;33.79
60019;BME280;45870;42.528;26.740;2023-04-07T03:31:22;99517.66;;;16.11;33.83
60019;BME280;45870;42.528;26.740;2023-04-07T03:33:48;99509.75;;;16.05;35.08
60019;BME280;45870;42.528;26.740;2023-04-07T03:36:15;99495.59;;;15.87;35.24
60019;BME280;45870;42.528;26.740;2023-04-07T03:38:43;99521.47;;;15.95;34.93
60019;BME280;45870;42.528;26.740;2023-04-07T03:41:09;99505.69;;;16.07;34.85
60019;BME280;45870;42.528;26.740;2023-04-07T03:43:34;99514.91;;;16.21;34.10
60019;BME280;45870;42.528;26.740;2023-04-07T03:46:00;99527.97;;;16.24;34.60
60019;BME280;45870;42.528;26.740;2023-04-07T03:48:26;99535.88;;;16.06;35.18
60019;BME280;45870;42.528;26.740;2023-04-07T03:50:51;99534.44;;;15.22;36.57
60019;BME280;45870;42.528;26.740;2023-04-07T03:53:17;99470.25;;;15.41;34.67
60019;BME280;45870;42.528;26.740;2023-04-07T03:55:44;99534.00;;;16.11;34.91
60019;BME280;45870;42.528;26.740;2023-04-07T03:58:10;99532.34;;;16.05;34.89
60019;BME280;45870;42.528;26.740;2023-04-07T04:00:36;99534.25;;;15.99;34.77
60019;BME280;45870;42.528;26.740;2023-04-07T04:03:02;99525.25;;;16.19;34.40
60019;BME280;45870;42.528;26.740;2023-04-07T04:05:27;99542.91;;;16.52;33.35
60019;BME280;45870;42.528;26.740;2023-04-07T04:07:53;99546.50;;;16.32;33.61
60019;BME280;45870;42.528;26.740;2023-04-07T04:10:19;99486.06;;;16.05;33.93
60019;BME280;45870;42.528;26.740;2023-04-07T04:12:47;99546.22;;;16.24;34.29
60019;BME280;45870;42.528;26.740;2023-04-07T04:15:13;99551.38;;;15.70;36.46
60019;BME280;45870;42.528;26.740;2023-04-07T04:17:39;99558.47;;;16.26;35.16
60019;BME280;45870;42.528;26.740;2023-04-07T04:20:06;99562.56;;;16.19;35.64
60019;BME280;45870;42.528;26.740;2023-04-07T04:22:32;99567.41;;;16.47;35.28
60019;BME280;45870;42.528;26.740;2023-04-07T04:24:59;99568.78;;;16.44;35.25
60019;BME280;45870;42.528;26.740;2023-04-07T04:27:25;99568.72;;;16.85;33.71
60019;BME280;45870;42.528;26.740;2023-04-07T04:29:51;99573.53;;;17.03;34.34
60019;BME280;45870;42.528;26.740;2023-04-07T04:32:16;99551.88;;;16.58;34.85
60019;BME280;45870;42.528;26.740;2023-04-07T04:34:42;99552.50;;;16.04;36.22
60019;BME280;45870;42.528;26.740;2023-04-07T04:37:08;99573.13;;;16.50;35.04
60019;BME280;45870;42.528;26.740;2023-04-07T04:39:34;99574.25;;;16.19;36.82
60019;BME280;45870;42.528;26.740;2023-04-07T04:41:59;99571.63;;;15.17;38.87
60019;BME280;45870;42.528;26.740;2023-04-07T04:44:26;99545.69;;;15.76;37.73
60019;BME280;45870;42.528;26.740;2023-04-07T04:46:52;99574.28;;;16.14;37.06
60019;BME280;45870;42.528;26.740;2023-04-07T04:49:18;99577.78;;;15.54;37.63
60019;BME280;45870;42.528;26.740;2023-04-07T04:51:44;99580.69;;;15.42;37.72
60019;BME280;45870;42.528;26.740;2023-04-07T04:54:10;99582.19;;;16.11;36.83
60019;BME280;45870;42.528;26.740;2023-04-07T04:56:36;99580.25;;;15.71;36.88
60019;BME280;45870;42.528;26.740;2023-04-07T04:59:03;99586.78;;;16.45;35.42
60019;BME280;45870;42.528;26.740;2023-04-07T05:01:29;99595.91;;;17.05;34.47
60019;BME280;45870;42.528;26.740;2023-04-07T05:03:54;99597.00;;;17.63;33.11
60019;BME280;45870;42.528;26.740;2023-04-07T05:06:20;99602.44;;;18.07;32.83
60019;BME280;45870;42.528;26.740;2023-04-07T05:08:46;99601.84;;;18.15;33.37
60019;BME280;45870;42.528;26.740;2023-04-07T05:11:12;99611.00;;;18.29;33.12
60019;BME280;45870;42.528;26.740;2023-04-07T05:13:37;99562.38;;;17.05;33.91
60019;BME280;45870;42.528;26.740;2023-04-07T05:16:04;99622.78;;;17.32;34.29
60019;BME280;45870;42.528;26.740;2023-04-07T05:18:29;99615.09;;;16.55;35.44
60019;BME280;45870;42.528;26.740;2023-04-07T05:20:55;99623.00;;;15.95;37.10
60019;BME280;45870;42.528;26.740;2023-04-07T05:23:21;99624.38;;;16.59;36.13
60019;BME280;45870;42.528;26.740;2023-04-07T05:25:46;99627.91;;;16.44;36.64
60019;BME280;45870;42.528;26.740;2023-04-07T05:28:12;99634.38;;;16.93;36.10
60019;BME280;45870;42.528;26.740;2023-04-07T05:30:38;99640.38;;;17.06;35.46
60019;BME280;45870;42.528;26.740;2023-04-07T05:33:03;99614.44;;;17.67;34.38
60019;BME280;45870;42.528;26.740;2023-04-07T05:35:29;99605.44;;;17.67;33.87
60019;BME280;45870;42.528;26.740;2023-04-07T05:37:55;99644.25;;;16.69;34.45
60019;BME280;45870;42.528;26.740;2023-04-07T05:40:21;99605.28;;;15.68;35.02
60019;BME280;45870;42.528;26.740;2023-04-07T05:42:47;99643.63;;;17.72;33.61
60019;BME280;45870;42.528;26.740;2023-04-07T05:45:13;99606.22;;;17.18;33.06
60019;BME280;45870;42.528;26.740;2023-04-07T05:47:38;99624.91;;;16.10;34.49
60019;BME280;45870;42.528;26.740;2023-04-07T05:50:04;99616.78;;;15.18;36.51
60019;BME280;45870;42.528;26.740;2023-04-07T05:52:30;99645.25;;;15.67;35.83
60019;BME280;45870;42.528;26.740;2023-04-07T05:54:56;99651.16;;;14.87;37.18
60019;BME280;45870;42.528;26.740;2023-04-07T05:57:22;99639.03;;;15.72;35.47
60019;BME280;45870;42.528;26.740;2023-04-07T05:59:47;99637.16;;;17.53;33.11
60019;BME280;45870;42.528;26.740;2023-04-07T06:02:13;99651.53;;;17.09;32.91
60019;BME280;45870;42.528;26.740;2023-04-07T06:04:39;99648.06;;;16.68;34.08
60019;BME280;45870;42.528;26.740;2023-04-07T06:07:04;99640.84;;;17.82;32.31
60019;BME280;45870;42.528;26.740;2023-04-07T06:09:30;99642.25;;;17.74;32.63
60019;BME280;45870;42.528;26.740;2023-04-07T06:11:56;99645.94;;;18.32;32.02
60019;BME280;45870;42.528;26.740;2023-04-07T06:14:22;99656.31;;;18.35;31.83
60019;BME280;45870;42.528;26.740;2023-04-07T06:16:51;99662.25;;;17.65;31.19
60019;BME280;45870;42.528;26.740;2023-04-07T06:19:16;99656.91;;;17.29;31.47
60019;BME280;45870;42.528;26.740;2023-04-07T06:21:42;99658.91;;;15.77;34.23
60019;BME280;45870;42.528;26.740;2023-04-07T06:24:08;99662.72;;;18.55;30.21
60019;BME280;45870;42.528;26.740;2023-04-07T06:26:33;99669.16;;;19.21;29.13
60019;BME280;45870;42.528;26.740;2023-04-07T06:28:59;99652.00;;;19.16;29.32
60019;BME280;45870;42.528;26.740;2023-04-07T06:31:25;99671.19;;;16.05;31.88
60019;BME280;45870;42.528;26.740;2023-04-07T06:33:51;99663.50;;;15.77;33.95
60019;BME280;45870;42.528;26.740;2023-04-07T06:36:17;99665.38;;;15.51;34.19
60019;BME280;45870;42.528;26.740;2023-04-07T06:38:43;99669.72;;;15.00;34.08
60019;BME280;45870;42.528;26.740;2023-04-07T06:41:08;99671.50;;;16.29;32.30
60019;BME280;45870;42.528;26.740;2023-04-07T06:43:40;99674.09;;;15.58;32.30
60019;BME280;45870;42.528;26.740;2023-04-07T06:46:06;99682.94;;;15.38;33.35
60019;BME280;45870;42.528;26.740;2023-04-07T06:48:32;99681.03;;;16.46;31.91
60019;BME280;45870;42.528;26.740;2023-04-07T06:50:57;99692.00;;;17.61;30.27
60019;BME280;45870;42.528;26.740;2023-04-07T06:53:23;99688.03;;;15.20;33.23
60019;BME280;45870;42.528;26.740;2023-04-07T06:55:48;99690.97;;;15.08;32.78
60019;BME280;45870;42.528;26.740;2023-04-07T06:58:14;99689.03;;;18.40;29.02
60019;BME280;45870;42.528;26.740;2023-04-07T07:00:40;99687.28;;;16.37;30.85
60019;BME280;45870;42.528;26.740;2023-04-07T07:03:06;99691.28;;;15.84;31.73
60019;BME280;45870;42.528;26.740;2023-04-07T07:05:31;99647.81;;;16.49;35.00
60019;BME280;45870;42.528;26.740;2023-04-07T07:07:57;99689.81;;;18.51;31.18
60019;BME280;45870;42.528;26.740;2023-04-07T07:10:23;99698.28;;;18.83;30.14
60019;BME280;45870;42.528;26.740;2023-04-07T07:12:49;99701.22;;;16.61;29.12
60019;BME280;45870;42.528;26.740;2023-04-07T07:15:15;99706.38;;;16.42;30.19
60019;BME280;45870;42.528;26.740;2023-04-07T07:17:41;99709.44;;;19.39;25.62
60019;BME280;45870;42.528;26.740;2023-04-07T07:20:07;99706.81;;;19.29;25.66
60019;BME280;45870;42.528;26.740;2023-04-07T07:22:33;99700.13;;;20.07;24.85
60019;BME280;45870;42.528;26.740;2023-04-07T07:24:59;99704.72;;;20.49;25.20
60019;BME280;45870;42.528;26.740;2023-04-07T07:27:24;99723.13;;;21.13;24.24
60019;BME280;45870;42.528;26.740;2023-04-07T07:29:50;99714.19;;;21.21;23.91
60019;BME280;45870;42.528;26.740;2023-04-07T07:32:16;99674.19;;;18.18;28.32
60019;BME280;45870;42.528;26.740;2023-04-07T07:34:41;99712.50;;;17.43;28.16
60019;BME280;45870;42.528;26.740;2023-04-07T07:37:07;99709.53;;;20.57;25.23
60019;BME280;45870;42.528;26.740;2023-04-07T07:39:32;99710.72;;;21.83;23.79
60019;BME280;45870;42.528;26.740;2023-04-07T07:41:58;99715.19;;;21.79;23.91
60019;BME280;45870;42.528;26.740;2023-04-07T07:44:24;99723.78;;;19.79;26.57
60019;BME280;45870;42.528;26.740;2023-04-07T07:46:49;99724.47;;;21.56;23.81
60019;BME280;45870;42.528;26.740;2023-04-07T07:49:15;99714.97;;;18.53;28.49
60019;BME280;45870;42.528;26.740;2023-04-07T07:51:41;99717.59;;;18.24;28.23
60019;BME280;45870;42.528;26.740;2023-04-07T07:54:07;99727.84;;;17.34;27.64
60019;BME280;45870;42.528;26.740;2023-04-07T07:56:34;99724.88;;;16.20;30.72
60019;BME280;45870;42.528;26.740;2023-04-07T07:59:00;99734.31;;;18.90;28.13
60019;BME280;45870;42.528;26.740;2023-04-07T08:01:26;99731.34;;;18.87;28.22
60019;BME280;45870;42.528;26.740;2023-04-07T08:03:52;99739.25;;;17.52;30.44
60019;BME280;45870;42.528;26.740;2023-04-07T08:06:17;99740.38;;;19.40;28.04
60019;BME280;45870;42.528;26.740;2023-04-07T08:08:43;99741.88;;;19.99;25.74
60019;BME280;45870;42.528;26.740;2023-04-07T08:11:09;99680.88;;;19.03;27.40
60019;BME280;45870;42.528;26.740;2023-04-07T08:13:34;99745.28;;;20.98;25.45
60019;BME280;45870;42.528;26.740;2023-04-07T08:16:00;99736.63;;;16.91;29.64
60019;BME280;45870;42.528;26.740;2023-04-07T08:18:26;99742.00;;;18.55;28.65
60019;BME280;45870;42.528;26.740;2023-04-07T08:20:51;99747.41;;;18.93;27.71
60019;BME280;45870;42.528;26.740;2023-04-07T08:23:18;99748.25;;;18.60;28.03
60019;BME280;45870;42.528;26.740;2023-04-07T08:25:43;99739.81;;;17.38;28.58
60019;BME280;45870;42.528;26.740;2023-04-07T08:28:09;99698.75;;;16.84;29.92
60019;BME280;45870;42.528;26.740;2023-04-07T08:30:34;99752.06;;;15.99;30.73
60019;BME280;45870;42.528;26.740;2023-04-07T08:33:00;99748.53;;;18.92;27.24
60019;BME280;45870;42.528;26.740;2023-04-07T08:35:26;99746.97;;;20.80;24.57
60019;BME280;45870;42.528;26.740;2023-04-07T08:37:51;99750.91;;;20.74;25.03
60019;BME280;45870;42.528;26.740;2023-04-07T08:40:17;99748.63;;;16.80;29.85
60019;BME280;45870;42.528;26.740;2023-04-07T08:42:46;99750.81;;;16.73;31.61
60019;BME280;45870;42.528;26.740;2023-04-07T08:45:24;99763.63;;;15.65;33.59
60019;BME280;45870;42.528;26.740;2023-04-07T08:47:54;99754.88;;;17.01;29.63
60019;BME280;45870;42.528;26.740;2023-04-07T08:50:25;99758.44;;;17.95;27.62
60019;BME280;45870;42.528;26.740;2023-04-07T08:52:55;99760.16;;;18.74;28.03
60019;BME280;45870;42.528;26.740;2023-04-07T08:55:24;99754.69;;;21.42;23.68
60019;BME280;45870;42.528;26.740;2023-04-07T08:57:51;99742.25;;;21.72;23.83
60019;BME280;45870;42.528;26.740;2023-04-07T09:00:17;99770.53;;;15.92;32.45
60019;BME280;45870;42.528;26.740;2023-04-07T09:02:43;99759.69;;;17.59;29.92
60019;BME280;45870;42.528;26.740;2023-04-07T09:05:10;99767.53;;;14.95;33.04
60019;BME280;45870;42.528;26.740;2023-04-07T09:07:38;99768.84;;;15.29;33.46
60019;BME280;45870;42.528;26.740;2023-04-07T09:10:07;99766.66;;;15.26;33.51
60019;BME280;45870;42.528;26.740;2023-04-07T09:12:34;99763.09;;;17.95;30.12
60019;BME280;45870;42.528;26.740;2023-04-07T09:15:00;99767.69;;;17.30;31.65
60019;BME280;45870;42.528;26.740;2023-04-07T09:17:27;99763.72;;;17.77;29.54
60019;BME280;45870;42.528;26.740;2023-04-07T09:19:57;99761.88;;;18.99;26.58
60019;BME280;45870;42.528;26.740;2023-04-07T09:22:37;99763.75;;;15.43;31.45
60019;BME280;45870;42.528;26.740;2023-04-07T09:27:38;99747.63;;;18.29;28.11
60019;BME280;45870;42.528;26.740;2023-04-07T09:30:12;99767.66;;;19.74;28.05
60019;BME280;45870;42.528;26.740;2023-04-07T09:32:39;99753.84;;;22.10;25.21
60019;BME280;45870;42.528;26.740;2023-04-07T09:35:06;99759.84;;;22.84;22.03
60019;BME280;45870;42.528;26.740;2023-04-07T09:37:32;99766.03;;;23.73;22.40
60019;BME280;45870;42.528;26.740;2023-04-07T09:39:57;99756.34;;;19.04;27.70
60019;BME280;45870;42.528;26.740;2023-04-07T09:42:24;99711.09;;;20.76;26.17
60019;BME280;45870;42.528;26.740;2023-04-07T09:44:51;99719.34;;;22.76;23.67
60019;BME280;45870;42.528;26.740;2023-04-07T09:47:17;99757.72;;;23.03;22.63
60019;BME280;45870;42.528;26.740;2023-04-07T09:49:51;99760.09;;;20.51;25.96
60019;BME280;45870;42.528;26.740;2023-04-07T09:52:18;99763.22;;;19.30;28.21
60019;BME280;45870;42.528;26.740;2023-04-07T09:54:48;99764.66;;;21.52;25.10
60019;BME280;45870;42.528;26.740;2023-04-07T09:57:15;99767.47;;;22.29;23.28
60019;BME280;45870;42.528;26.740;2023-04-07T09:59:43;99769.84;;;22.08;24.14
60019;BME280;45870;42.528;26.740;2023-04-07T10:02:10;99763.63;;;21.62;23.81
60019;BME280;45870;42.528;26.740;2023-04-07T10:04:36;99764.63;;;21.25;26.15
60019;BME280;45870;42.528;26.740;2023-04-07T10:07:03;99728.16;;;22.86;22.76
60019;BME280;45870;42.528;26.740;2023-04-07T10:09:30;99765.91;;;20.63;25.99
60019;BME280;45870;42.528;26.740;2023-04-07T10:11:57;99765.78;;;22.77;22.73
60019;BME280;45870;42.528;26.740;2023-04-07T10:14:30;99759.97;;;21.07;24.52
60019;BME280;45870;42.528;26.740;2023-04-07T10:16:59;99754.34;;;21.71;24.81
60019;BME280;45870;42.528;26.740;2023-04-07T10:19:30;99764.16;;;21.91;24.17
60019;BME280;45870;42.528;26.740;2023-04-07T10:21:58;99759.50;;;22.27;23.70
60019;BME280;45870;42.528;26.740;2023-04-07T10:27:18;99759.16;;;21.06;25.89
60019;BME280;45870;42.528;26.740;2023-04-07T10:29:49;99756.81;;;21.86;24.21
60019;BME280;45870;42.528;26.740;2023-04-07T10:32:15;99751.91;;;20.97;27.05
60019;BME280;45870;42.528;26.740;2023-04-07T10:37:15;99761.09;;;21.52;24.58
60019;BME280;45870;42.528;26.740;2023-04-07T10:39:48;99726.38;;;20.82;26.22
60019;BME280;45870;42.528;26.740;2023-04-07T10:42:48;99757.88;;;20.85;24.74
60019;BME280;45870;42.528;26.740;2023-04-07T10:45:15;99753.03;;;21.82;25.14
60019;BME280;45870;42.528;26.740;2023-04-07T10:50:28;99760.06;;;23.18;23.93
60019;BME280;45870;42.528;26.740;2023-04-07T10:55:41;99718.03;;;18.75;28.96
60019;BME280;45870;42.528;26.740;2023-04-07T11:03:38;99746.84;;;21.04;27.33
60019;BME280;45870;42.528;26.740;2023-04-07T11:06:10;99758.97;;;20.09;28.03
60019;BME280;45870;42.528;26.740;2023-04-07T11:08:40;99748.94;;;22.21;26.73
60019;BME280;45870;42.528;26.740;2023-04-07T11:11:07;99754.41;;;21.12;26.33
60019;BME280;45870;42.528;26.740;2023-04-07T11:13:44;99759.84;;;23.37;24.01
60019;BME280;45870;42.528;26.740;2023-04-07T11:16:12;99747.91;;;22.17;26.19
60019;BME280;45870;42.528;26.740;2023-04-07T11:18:39;99753.03;;;24.39;21.94
60019;BME280;45870;42.528;26.740;2023-04-07T11:21:06;99751.53;;;18.91;29.00
60019;BME280;45870;42.528;26.740;2023-04-07T11:26:04;99749.69;;;22.13;25.24
60019;BME280;45870;42.528;26.740;2023-04-07T11:28:30;99746.88;;;24.16;21.72
60019;BME280;45870;42.528;26.740;2023-04-07T11:30:56;99745.69;;;20.91;27.33
60019;BME280;45870;42.528;26.740;2023-04-07T11:33:27;99746.63;;;23.17;23.94
60019;BME280;45870;42.528;26.740;2023-04-07T11:35:56;99732.66;;;18.89;27.90
60019;BME280;45870;42.528;26.740;2023-04-07T11:38:27;99734.75;;;20.40;28.10
60019;BME280;45870;42.528;26.740;2023-04-07T11:40:54;99730.72;;;22.47;24.09
60019;BME280;45870;42.528;26.740;2023-04-07T11:43:25;99737.69;;;21.40;26.62
60019;BME280;45870;42.528;26.740;2023-04-07T11:46:14;99729.97;;;21.42;25.60
60019;BME280;45870;42.528;26.740;2023-04-07T11:48:43;99725.94;;;22.75;23.49
60019;BME280;45870;42.528;26.740;2023-04-07T11:51:20;99733.13;;;19.54;29.07
60019;BME280;45870;42.528;26.740;2023-04-07T11:53:53;99725.78;;;19.73;27.54
60019;BME280;45870;42.528;26.740;2023-04-07T11:56:20;99712.50;;;21.06;26.39
60019;BME280;45870;42.528;26.740;2023-04-07T11:58:50;99727.31;;;21.65;24.55
60019;BME280;45870;42.528;26.740;2023-04-07T12:01:16;99734.81;;;21.86;24.99
60019;BME280;45870;42.528;26.740;2023-04-07T12:04:02;99725.63;;;22.18;25.02
60019;BME280;45870;42.528;26.740;2023-04-07T12:06:30;99723.84;;;22.36;24.67
60019;BME280;45870;42.528;26.740;2023-04-07T12:09:03;99727.16;;;22.82;25.79
60019;BME280;45870;42.528;26.740;2023-04-07T12:11:30;99727.31;;;21.37;25.97
60019;BME280;45870;42.528;26.740;2023-04-07T12:13:57;99721.88;;;20.17;27.93
60019;BME280;45870;42.528;26.740;2023-04-07T12:16:23;99719.13;;;20.40;28.15
60019;BME280;45870;42.528;26.740;2023-04-07T12:18:49;99721.41;;;20.98;26.30
60019;BME280;45870;42.528;26.740;2023-04-07T12:21:18;99726.53;;;22.50;25.55
60019;BME280;45870;42.528;26.740;2023-04-07T12:23:45;99715.50;;;19.84;28.11
60019;BME280;45870;42.528;26.740;2023-04-07T12:26:12;99720.94;;;20.26;28.81
60019;BME280;45870;42.528;26.740;2023-04-07T12:28:38;99718.09;;;19.52;30.01
60019;BME280;45870;42.528;26.740;2023-04-07T12:31:04;99672.72;;;18.69;30.99
60019;BME280;45870;42.528;26.740;2023-04-07T12:33:30;99718.44;;;20.81;28.13
60019;BME280;45870;42.528;26.740;2023-04-07T12:35:56;99716.44;;;19.03;31.87
60019;BME280;45870;42.528;26.740;2023-04-07T12:38:22;99711.25;;;20.34;29.79
60019;BME280;45870;42.528;26.740;2023-04-07T12:40:48;99703.84;;;20.16;29.91
60019;BME280;45870;42.528;26.740;2023-04-07T12:43:14;99706.56;;;20.85;28.44
60019;BME280;45870;42.528;26.740;2023-04-07T12:45:39;99721.03;;;19.79;30.29
60019;BME280;45870;42.528;26.740;2023-04-07T12:48:05;99716.69;;;19.30;30.49
60019;BME280;45870;42.528;26.740;2023-04-07T12:50:31;99710.41;;;20.52;29.60
60019;BME280;45870;42.528;26.740;2023-04-07T12:52:57;99682.25;;;18.72;31.09
60019;BME280;45870;42.528;26.740;2023-04-07T12:55:28;99708.91;;;21.65;28.39
60019;BME280;45870;42.528;26.740;2023-04-07T12:57:54;99708.09;;;21.51;27.29
60019;BME280;45870;42.528;26.740;2023-04-07T13:00:20;99714.16;;;18.81;32.14
60019;BME280;45870;42.528;26.740;2023-04-07T13:02:46;99707.81;;;18.13;31.94
60019;BME280;45870;42.528;26.740;2023-04-07T13:05:12;99712.75;;;18.55;33.01
60019;BME280;45870;42.528;26.740;2023-04-07T13:07:38;99708.41;;;18.83;33.39
60019;BME280;45870;42.528;26.740;2023-04-07T13:10:04;99716.44;;;19.74;31.84
60019;BME280;45870;42.528;26.740;2023-04-07T13:12:31;99714.81;;;21.31;29.94
60019;BME280;45870;42.528;26.740;2023-04-07T13:14:57;99715.69;;;22.45;27.84